Santa Clarita, CA

1:41 PM PDT on September 27, 2016 (GMT -0700)
Saugus (Seco Canyon) | | Change Station

Elev 1492 ft 34.46 °N, 118.53 °W | Updated 4 seconds ago

Mostly Cloudy
Mostly Cloudy
96.0 °F
Feels Like 93 °F
N
0.0
Wind Variable Wind from ENE
Gusts 8.0 mph

Today
High -- | Low -- °F
--% Chance of Precip.
Yesterday
High -- | Low -- °F
Precip. -- in
Pressure 29.92 in
Visibility 10.0 miles
Clouds Mostly Cloudy 25000 ft
Heat Index 93 °F
Dew Point 48 °F
Humidity 20%
Rainfall 0.00 in
Snow Depth Not available.
6:46 AM 6:42 PM
Waning Crescent, 9% visible
METAR KWHP 271853Z 14006KT 10SM BKN250 34/03 A2992
Pressure 29.92 in
Visibility 10.0 miles
Clouds Mostly Cloudy 25000 ft
Heat Index 93 °F
Dew Point 48 °F
Humidity 20%
Rainfall 0.00 in
Snow Depth Not available.
6:46 AM 6:42 PM
Waning Crescent, 9% visible
METAR KWHP 271853Z 14006KT 10SM BKN250 34/03 A2992

10-Day Weather Forecast

Almanac

Astronomy

Sep. 27, 2016 Rise Set
Actual Time
Civil Twilight
Nautical Twilight
Astronomical Twilight
Moon
Length of Visible Light
Length of Day
Tomorrow will be .
, % of the Moon is Illuminated

Today's Extremes

State Highs State Lows

Community

WunderPhotos

Upload Photos

1,942,168 photos uploaded!

WunderBlog® & News

Nearby

Air Quality

  Air Quality AQ Index Pollutant
Not available.

Snow Depth

Station Depth Elevation

Earthquake Activity

City Distance Mag. Time & Date
Minimum magnitude displayed is 2.5.

Coastal Water Temperatures

Place Temperature

Stations

Nearby Weather Stations

Station Location Temp. Windchill Dew Point Humidity Wind Precip. Elev Updated Type
                   

Watches & Warnings

There are currently no watches in effect.